sensor_id;sensor_type;location;lat;lon;timestamp;pressure;altitude;pressure_sealevel;temperature;humidity
50696;BME280;36665;51.786;21.594;2023-02-28T00:00:57;90448.56;;;-4.46;71.27
50696;BME280;36665;51.786;21.594;2023-02-28T00:09:20;90408.33;;;-4.59;71.37
50696;BME280;36665;51.786;21.594;2023-02-28T00:17:43;90389.48;;;-4.63;71.08
50696;BME280;36665;51.786;21.594;2023-02-28T00:26:06;90394.30;;;-4.62;71.22
50696;BME280;36665;51.786;21.594;2023-02-28T00:34:29;90373.28;;;-4.68;71.13
50696;BME280;36665;51.786;21.594;2023-02-28T00:42:52;90314.59;;;-4.85;71.02
50696;BME280;36665;51.786;21.594;2023-02-28T00:51:16;90265.48;;;-4.98;71.13
50696;BME280;36665;51.786;21.594;2023-02-28T00:59:40;90215.97;;;-5.13;71.06
50696;BME280;36665;51.786;21.594;2023-02-28T01:08:03;90188.29;;;-5.20;70.99
50696;BME280;36665;51.786;21.594;2023-02-28T01:16:27;90185.83;;;-5.20;71.05
50696;BME280;36665;51.786;21.594;2023-02-28T01:24:50;90167.71;;;-5.26;71.29
50696;BME280;36665;51.786;21.594;2023-02-28T01:33:13;90136.14;;;-5.35;71.09
50696;BME280;36665;51.786;21.594;2023-02-28T01:41:36;90093.81;;;-5.46;71.12
50696;BME280;36665;51.786;21.594;2023-02-28T01:50:01;90079.00;;;-5.50;70.99
50696;BME280;36665;51.786;21.594;2023-02-28T01:58:25;90094.85;;;-5.45;70.82
50696;BME280;36665;51.786;21.594;2023-02-28T02:06:49;90086.79;;;-5.47;71.25
50696;BME280;36665;51.786;21.594;2023-02-28T02:15:16;90031.55;;;-5.64;70.90
50696;BME280;36665;51.786;21.594;2023-02-28T02:33:03;89980.77;;;-5.78;71.13
50696;BME280;36665;51.786;21.594;2023-02-28T02:41:53;89986.37;;;-5.76;71.06
50696;BME280;36665;51.786;21.594;2023-02-28T02:50:27;89976.58;;;-5.79;70.97
50696;BME280;36665;51.786;21.594;2023-02-28T02:58:55;89945.23;;;-5.89;70.95
50696;BME280;36665;51.786;21.594;2023-02-28T03:07:22;89923.30;;;-5.94;71.00
50696;BME280;36665;51.786;21.594;2023-02-28T03:24:45;89907.90;;;-5.98;71.15
50696;BME280;36665;51.786;21.594;2023-02-28T03:33:28;89871.60;;;-6.08;70.94
50696;BME280;36665;51.786;21.594;2023-02-28T03:41:58;89837.92;;;-6.19;70.83
50696;BME280;36665;51.786;21.594;2023-02-28T03:50:39;89828.51;;;-6.21;70.73
50696;BME280;36665;51.786;21.594;2023-02-28T03:59:24;89799.42;;;-6.29;70.89
50696;BME280;36665;51.786;21.594;2023-02-28T04:07:48;89759.55;;;-6.40;70.66
50696;BME280;36665;51.786;21.594;2023-02-28T04:16:12;89763.53;;;-6.39;70.95
50696;BME280;36665;51.786;21.594;2023-02-28T04:24:54;89774.20;;;-6.35;71.04
50696;BME280;36665;51.786;21.594;2023-02-28T04:33:17;89753.23;;;-6.42;70.95
50696;BME280;36665;51.786;21.594;2023-02-28T04:41:46;89708.05;;;-6.55;70.78
50696;BME280;36665;51.786;21.594;2023-02-28T04:50:09;89670.90;;;-6.65;70.88
50696;BME280;36665;51.786;21.594;2023-02-28T04:58:34;89660.77;;;-6.68;70.93
50696;BME280;36665;51.786;21.594;2023-02-28T05:06:57;89680.52;;;-6.62;70.87
50696;BME280;36665;51.786;21.594;2023-02-28T05:15:21;89698.54;;;-6.57;70.98
50696;BME280;36665;51.786;21.594;2023-02-28T05:23:44;89694.76;;;-6.57;70.96
50696;BME280;36665;51.786;21.594;2023-02-28T05:32:11;89713.77;;;-6.53;71.07
50696;BME280;36665;51.786;21.594;2023-02-28T05:40:35;89725.05;;;-6.50;71.05
50696;BME280;36665;51.786;21.594;2023-02-28T05:48:58;89712.66;;;-6.53;70.77
50696;BME280;36665;51.786;21.594;2023-02-28T05:57:24;89717.07;;;-6.51;71.13
50696;BME280;36665;51.786;21.594;2023-02-28T06:05:49;89745.98;;;-6.44;71.06
50696;BME280;36665;51.786;21.594;2023-02-28T06:14:18;89826.42;;;-6.21;71.09
50696;BME280;36665;51.786;21.594;2023-02-28T06:22:42;89924.33;;;-5.92;71.31
50696;BME280;36665;51.786;21.594;2023-02-28T06:31:13;90001.43;;;-5.70;71.41
50696;BME280;36665;51.786;21.594;2023-02-28T06:39:38;90082.35;;;-5.47;71.41
50696;BME280;36665;51.786;21.594;2023-02-28T06:48:01;90155.89;;;-5.27;71.72
50696;BME280;36665;51.786;21.594;2023-02-28T06:56:24;90247.02;;;-5.01;71.56
50696;BME280;36665;51.786;21.594;2023-02-28T07:04:47;90440.57;;;-4.46;71.77
50696;BME280;36665;51.786;21.594;2023-02-28T07:13:11;90817.33;;;-3.41;72.25
50696;BME280;36665;51.786;21.594;2023-02-28T07:21:34;91201.16;;;-2.33;72.64
50696;BME280;36665;51.786;21.594;2023-02-28T07:29:57;91622.86;;;-1.18;72.89
50696;BME280;36665;51.786;21.594;2023-02-28T07:38:25;91763.75;;;-0.79;73.02
50696;BME280;36665;51.786;21.594;2023-02-28T07:46:48;92165.27;;;0.30;73.45
50696;BME280;36665;51.786;21.594;2023-02-28T07:55:11;92647.84;;;1.63;73.97
50696;BME280;36665;51.786;21.594;2023-02-28T08:03:34;92925.70;;;2.36;73.91
50696;BME280;36665;51.786;21.594;2023-02-28T08:11:58;93142.66;;;2.94;74.15
50696;BME280;36665;51.786;21.594;2023-02-28T08:20:22;93187.98;;;3.07;74.09
50696;BME280;36665;51.786;21.594;2023-02-28T08:28:46;92939.71;;;2.39;74.00
50696;BME280;36665;51.786;21.594;2023-02-28T08:37:09;92744.09;;;1.86;73.82
50696;BME280;36665;51.786;21.594;2023-02-28T08:45:34;92705.55;;;1.75;73.97
50696;BME280;36665;51.786;21.594;2023-02-28T08:54:00;92752.35;;;1.88;73.80
50696;BME280;36665;51.786;21.594;2023-02-28T09:02:23;92824.74;;;2.07;74.00
50696;BME280;36665;51.786;21.594;2023-02-28T09:10:46;92804.71;;;2.02;73.90
50696;BME280;36665;51.786;21.594;2023-02-28T09:19:13;92736.60;;;1.83;73.78
50696;BME280;36665;51.786;21.594;2023-02-28T09:27:36;92678.17;;;1.67;73.60
50696;BME280;36665;51.786;21.594;2023-02-28T09:36:02;92628.55;;;1.55;73.67
50696;BME280;36665;51.786;21.594;2023-02-28T09:52:59;92639.03;;;1.58;73.49
50696;BME280;36665;51.786;21.594;2023-02-28T10:01:31;92650.34;;;1.60;73.57
50696;BME280;36665;51.786;21.594;2023-02-28T10:09:58;92625.63;;;1.53;73.55
50696;BME280;36665;51.786;21.594;2023-02-28T10:18:28;92541.82;;;1.31;73.33
50696;BME280;36665;51.786;21.594;2023-02-28T10:26:59;92515.69;;;1.23;73.27
50696;BME280;36665;51.786;21.594;2023-02-28T10:35:24;92547.22;;;1.32;73.27
50696;BME280;36665;51.786;21.594;2023-02-28T10:43:51;92578.48;;;1.40;73.31
50696;BME280;36665;51.786;21.594;2023-02-28T10:52:36;92550.15;;;1.33;73.14
50696;BME280;36665;51.786;21.594;2023-02-28T11:01:02;92593.71;;;1.45;73.05
50696;BME280;36665;51.786;21.594;2023-02-28T11:09:30;92609.90;;;1.48;73.12
50696;BME280;36665;51.786;21.594;2023-02-28T11:17:58;92635.58;;;1.56;73.26
50696;BME280;36665;51.786;21.594;2023-02-28T11:26:36;92685.38;;;1.69;73.25
50696;BME280;36665;51.786;21.594;2023-02-28T11:44:04;92759.31;;;1.89;73.07
50696;BME280;36665;51.786;21.594;2023-02-28T11:52:40;92777.15;;;1.94;73.19
50696;BME280;36665;51.786;21.594;2023-02-28T12:10:13;92800.63;;;2.01;73.24
50696;BME280;36665;51.786;21.594;2023-02-28T12:18:57;92742.95;;;1.84;73.10
50696;BME280;36665;51.786;21.594;2023-02-28T12:27:28;92765.15;;;1.90;73.18
50696;BME280;36665;51.786;21.594;2023-02-28T12:35:59;92804.32;;;2.01;73.09
50696;BME280;36665;51.786;21.594;2023-02-28T12:44:33;92799.55;;;1.99;73.11
50696;BME280;36665;51.786;21.594;2023-02-28T13:10:10;92864.12;;;2.19;73.20
50696;BME280;36665;51.786;21.594;2023-02-28T13:18:37;92885.27;;;2.24;72.95
50696;BME280;36665;51.786;21.594;2023-02-28T13:35:37;92872.36;;;2.20;73.21
50696;BME280;36665;51.786;21.594;2023-02-28T13:52:30;92862.95;;;2.17;72.94
50696;BME280;36665;51.786;21.594;2023-02-28T14:10:00;92818.74;;;2.06;72.84
50696;BME280;36665;51.786;21.594;2023-02-28T14:18:29;92810.67;;;2.03;72.64
50696;BME280;36665;51.786;21.594;2023-02-28T14:27:00;92791.99;;;1.98;72.78
50696;BME280;36665;51.786;21.594;2023-02-28T14:35:50;92763.52;;;1.91;72.76
50696;BME280;36665;51.786;21.594;2023-02-28T14:44:21;92748.67;;;1.86;72.73
50696;BME280;36665;51.786;21.594;2023-02-28T14:52:45;92732.23;;;1.81;72.51
50696;BME280;36665;51.786;21.594;2023-02-28T15:01:10;92690.69;;;1.71;72.45
50696;BME280;36665;51.786;21.594;2023-02-28T15:09:33;92613.20;;;1.50;72.52
50696;BME280;36665;51.786;21.594;2023-02-28T15:17:57;92545.67;;;1.32;72.33
50696;BME280;36665;51.786;21.594;2023-02-28T15:26:29;92470.80;;;1.11;72.41
50696;BME280;36665;51.786;21.594;2023-02-28T15:34:54;92395.01;;;0.90;72.34
50696;BME280;36665;51.786;21.594;2023-02-28T15:43:24;92317.42;;;0.70;72.13
50696;BME280;36665;51.786;21.594;2023-02-28T15:51:50;92240.30;;;0.48;72.18
50696;BME280;36665;51.786;21.594;2023-02-28T16:00:18;92168.27;;;0.28;72.04
50696;BME280;36665;51.786;21.594;2023-02-28T16:08:42;92080.50;;;0.05;71.84
50696;BME280;36665;51.786;21.594;2023-02-28T16:17:16;91995.92;;;-0.19;71.75
50696;BME280;36665;51.786;21.594;2023-02-28T16:25:43;91903.16;;;-0.44;71.97
50696;BME280;36665;51.786;21.594;2023-02-28T16:34:07;91810.80;;;-0.69;71.67
50696;BME280;36665;51.786;21.594;2023-02-28T16:42:31;91722.69;;;-0.93;71.66
50696;BME280;36665;51.786;21.594;2023-02-28T16:50:54;91647.89;;;-1.14;71.71
50696;BME280;36665;51.786;21.594;2023-02-28T16:59:22;91579.94;;;-1.32;71.62
50696;BME280;36665;51.786;21.594;2023-02-28T17:07:47;91502.45;;;-1.54;71.30
50696;BME280;36665;51.786;21.594;2023-02-28T17:16:25;91464.04;;;-1.65;71.37
50696;BME280;36665;51.786;21.594;2023-02-28T17:24:50;91452.34;;;-1.68;71.27
50696;BME280;36665;51.786;21.594;2023-02-28T17:33:14;91406.26;;;-1.79;71.33
50696;BME280;36665;51.786;21.594;2023-02-28T17:41:42;91337.80;;;-1.99;71.31
50696;BME280;36665;51.786;21.594;2023-02-28T17:50:11;91264.02;;;-2.20;71.20
50696;BME280;36665;51.786;21.594;2023-02-28T17:58:36;91230.90;;;-2.28;71.29
50696;BME280;36665;51.786;21.594;2023-02-28T18:06:59;91233.10;;;-2.28;71.22
50696;BME280;36665;51.786;21.594;2023-02-28T18:15:22;91204.89;;;-2.36;71.07
50696;BME280;36665;51.786;21.594;2023-02-28T18:23:46;91141.35;;;-2.53;71.06
50696;BME280;36665;51.786;21.594;2023-02-28T18:32:10;91062.70;;;-2.75;71.08
50696;BME280;36665;51.786;21.594;2023-02-28T18:40:34;90990.29;;;-2.95;71.11
50696;BME280;36665;51.786;21.594;2023-02-28T18:48:57;90962.42;;;-3.03;70.90
50696;BME280;36665;51.786;21.594;2023-02-28T18:57:22;90975.61;;;-3.00;70.87
50696;BME280;36665;51.786;21.594;2023-02-28T19:05:45;90968.03;;;-3.02;70.77
50696;BME280;36665;51.786;21.594;2023-02-28T19:14:10;90923.21;;;-3.13;70.75
50696;BME280;36665;51.786;21.594;2023-02-28T19:22:34;90869.81;;;-3.30;70.84
50696;BME280;36665;51.786;21.594;2023-02-28T19:30:59;90833.33;;;-3.39;70.80
50696;BME280;36665;51.786;21.594;2023-02-28T19:39:22;90814.74;;;-3.44;70.92
50696;BME280;36665;51.786;21.594;2023-02-28T19:47:45;90758.65;;;-3.59;70.73
50696;BME280;36665;51.786;21.594;2023-02-28T19:56:09;90711.05;;;-3.73;70.75
50696;BME280;36665;51.786;21.594;2023-02-28T20:04:33;90699.16;;;-3.76;70.73
50696;BME280;36665;51.786;21.594;2023-02-28T20:12:56;90707.64;;;-3.74;70.89
50696;BME280;36665;51.786;21.594;2023-02-28T20:21:19;90674.06;;;-3.83;70.78
50696;BME280;36665;51.786;21.594;2023-02-28T20:29:42;90611.52;;;-4.00;70.91
50696;BME280;36665;51.786;21.594;2023-02-28T20:38:06;90574.92;;;-4.10;70.88
50696;BME280;36665;51.786;21.594;2023-02-28T20:46:29;90572.39;;;-4.11;70.61
50696;BME280;36665;51.786;21.594;2023-02-28T20:54:53;90575.80;;;-4.10;70.68
50696;BME280;36665;51.786;21.594;2023-02-28T21:03:16;90557.27;;;-4.15;70.68
50696;BME280;36665;51.786;21.594;2023-02-28T21:11:40;90513.33;;;-4.27;70.69
50696;BME280;36665;51.786;21.594;2023-02-28T21:20:04;90458.20;;;-4.42;70.56
50696;BME280;36665;51.786;21.594;2023-02-28T21:28:27;90429.23;;;-4.50;70.76
50696;BME280;36665;51.786;21.594;2023-02-28T21:36:50;90423.80;;;-4.51;70.60
50696;BME280;36665;51.786;21.594;2023-02-28T21:45:15;90394.75;;;-4.59;70.77
50696;BME280;36665;51.786;21.594;2023-02-28T21:53:39;90374.42;;;-4.66;70.49
50696;BME280;36665;51.786;21.594;2023-02-28T22:02:03;90374.17;;;-4.66;70.73
50696;BME280;36665;51.786;21.594;2023-02-28T22:10:27;90373.33;;;-4.65;70.56
50696;BME280;36665;51.786;21.594;2023-02-28T22:18:50;90350.19;;;-4.72;70.40
50696;BME280;36665;51.786;21.594;2023-02-28T22:27:13;90306.92;;;-4.84;70.57
50696;BME280;36665;51.786;21.594;2023-02-28T22:35:36;90276.27;;;-4.92;70.53
50696;BME280;36665;51.786;21.594;2023-02-28T22:44:01;90236.71;;;-5.03;70.56
50696;BME280;36665;51.786;21.594;2023-02-28T22:52:25;90190.23;;;-5.17;70.37
50696;BME280;36665;51.786;21.594;2023-02-28T23:00:48;90147.98;;;-5.29;70.49
50696;BME280;36665;51.786;21.594;2023-02-28T23:09:16;90106.00;;;-5.41;70.31
50696;BME280;36665;51.786;21.594;2023-02-28T23:17:40;90093.44;;;-5.43;70.54
50696;BME280;36665;51.786;21.594;2023-02-28T23:26:06;90113.96;;;-5.38;70.42
50696;BME280;36665;51.786;21.594;2023-02-28T23:34:29;90095.64;;;-5.43;70.32
50696;BME280;36665;51.786;21.594;2023-02-28T23:42:53;90070.95;;;-5.51;70.25
50696;BME280;36665;51.786;21.594;2023-02-28T23:51:19;90053.16;;;-5.56;70.25
50696;BME280;36665;51.786;21.594;2023-02-28T23:59:42;90058.59;;;-5.54;70.31
